sensor_id;sensor_type;location;lat;lon;timestamp;temperature;humidity
9919;DHT22;4998;51.024;13.828;2023-09-18T00:01:07;22.90;63.50
9919;DHT22;4998;51.024;13.828;2023-09-18T00:03:34;22.90;63.70
9919;DHT22;4998;51.024;13.828;2023-09-18T00:06:01;22.90;63.90
9919;DHT22;4998;51.024;13.828;2023-09-18T00:08:28;22.90;64.20
9919;DHT22;4998;51.024;13.828;2023-09-18T00:10:57;22.90;64.20
9919;DHT22;4998;51.024;13.828;2023-09-18T00:13:26;23.00;64.70
9919;DHT22;4998;51.024;13.828;2023-09-18T00:15:55;23.00;64.80
9919;DHT22;4998;51.024;13.828;2023-09-18T00:18:25;23.00;65.10
9919;DHT22;4998;51.024;13.828;2023-09-18T00:20:52;23.10;65.10
9919;DHT22;4998;51.024;13.828;2023-09-18T00:23:19;23.10;65.00
9919;DHT22;4998;51.024;13.828;2023-09-18T00:25:47;23.20;65.20
9919;DHT22;4998;51.024;13.828;2023-09-18T00:28:15;23.20;65.30
9919;DHT22;4998;51.024;13.828;2023-09-18T00:30:46;23.30;65.50
9919;DHT22;4998;51.024;13.828;2023-09-18T00:33:14;23.30;65.50
9919;DHT22;4998;51.024;13.828;2023-09-18T00:35:45;23.40;65.40
9919;DHT22;4998;51.024;13.828;2023-09-18T00:38:12;23.40;65.70
9919;DHT22;4998;51.024;13.828;2023-09-18T00:40:39;23.50;65.50
9919;DHT22;4998;51.024;13.828;2023-09-18T00:43:07;23.50;65.50
9919;DHT22;4998;51.024;13.828;2023-09-18T00:45:39;23.50;65.60
9919;DHT22;4998;51.024;13.828;2023-09-18T00:48:07;23.50;65.70
9919;DHT22;4998;51.024;13.828;2023-09-18T00:50:35;23.50;65.50
9919;DHT22;4998;51.024;13.828;2023-09-18T00:53:02;23.50;65.70
9919;DHT22;4998;51.024;13.828;2023-09-18T00:55:30;23.50;65.70
9919;DHT22;4998;51.024;13.828;2023-09-18T00:57:58;23.50;65.80
9919;DHT22;4998;51.024;13.828;2023-09-18T01:00:25;23.60;66.00
9919;DHT22;4998;51.024;13.828;2023-09-18T01:02:54;23.60;66.00
9919;DHT22;4998;51.024;13.828;2023-09-18T01:05:21;23.60;66.10
9919;DHT22;4998;51.024;13.828;2023-09-18T01:07:47;23.60;66.10
9919;DHT22;4998;51.024;13.828;2023-09-18T01:10:15;23.60;66.10
9919;DHT22;4998;51.024;13.828;2023-09-18T01:12:47;23.60;66.20
9919;DHT22;4998;51.024;13.828;2023-09-18T01:15:19;23.70;66.50
9919;DHT22;4998;51.024;13.828;2023-09-18T01:17:48;23.70;66.50
9919;DHT22;4998;51.024;13.828;2023-09-18T01:20:17;23.70;66.30
9919;DHT22;4998;51.024;13.828;2023-09-18T01:22:45;23.70;66.40
9919;DHT22;4998;51.024;13.828;2023-09-18T01:25:15;23.70;66.40
9919;DHT22;4998;51.024;13.828;2023-09-18T01:27:42;23.80;66.40
9919;DHT22;4998;51.024;13.828;2023-09-18T01:30:10;23.80;66.40
9919;DHT22;4998;51.024;13.828;2023-09-18T01:32:38;23.80;66.60
9919;DHT22;4998;51.024;13.828;2023-09-18T01:35:06;23.80;66.40
9919;DHT22;4998;51.024;13.828;2023-09-18T01:37:36;23.80;66.50
9919;DHT22;4998;51.024;13.828;2023-09-18T01:40:07;23.80;66.40
9919;DHT22;4998;51.024;13.828;2023-09-18T01:42:34;23.80;66.40
9919;DHT22;4998;51.024;13.828;2023-09-18T01:45:02;23.80;66.50
9919;DHT22;4998;51.024;13.828;2023-09-18T01:47:30;23.80;66.50
9919;DHT22;4998;51.024;13.828;2023-09-18T01:49:57;23.80;66.60
9919;DHT22;4998;51.024;13.828;2023-09-18T01:52:24;23.80;66.60
9919;DHT22;4998;51.024;13.828;2023-09-18T01:54:51;23.80;66.60
9919;DHT22;4998;51.024;13.828;2023-09-18T01:57:20;23.90;66.80
9919;DHT22;4998;51.024;13.828;2023-09-18T01:59:47;23.90;66.80
9919;DHT22;4998;51.024;13.828;2023-09-18T02:02:14;23.90;66.80
9919;DHT22;4998;51.024;13.828;2023-09-18T02:04:41;23.80;66.80
9919;DHT22;4998;51.024;13.828;2023-09-18T02:07:09;23.80;66.80
9919;DHT22;4998;51.024;13.828;2023-09-18T02:09:36;23.90;67.00
9919;DHT22;4998;51.024;13.828;2023-09-18T02:12:03;23.80;67.00
9919;DHT22;4998;51.024;13.828;2023-09-18T02:14:33;23.80;67.10
9919;DHT22;4998;51.024;13.828;2023-09-18T02:17:00;23.80;67.20
9919;DHT22;4998;51.024;13.828;2023-09-18T02:19:27;23.80;67.20
9919;DHT22;4998;51.024;13.828;2023-09-18T02:21:56;23.80;67.30
9919;DHT22;4998;51.024;13.828;2023-09-18T02:24:24;23.80;67.40
9919;DHT22;4998;51.024;13.828;2023-09-18T02:26:50;23.80;67.30
9919;DHT22;4998;51.024;13.828;2023-09-18T02:29:17;23.80;67.50
9919;DHT22;4998;51.024;13.828;2023-09-18T02:31:46;23.70;67.50
9919;DHT22;4998;51.024;13.828;2023-09-18T02:34:13;23.70;67.70
9919;DHT22;4998;51.024;13.828;2023-09-18T02:36:40;23.70;67.70
9919;DHT22;4998;51.024;13.828;2023-09-18T02:39:07;23.70;67.70
9919;DHT22;4998;51.024;13.828;2023-09-18T02:41:34;23.70;67.90
9919;DHT22;4998;51.024;13.828;2023-09-18T02:44:01;23.70;68.00
9919;DHT22;4998;51.024;13.828;2023-09-18T02:46:28;23.60;67.90
9919;DHT22;4998;51.024;13.828;2023-09-18T02:48:56;23.60;68.00
9919;DHT22;4998;51.024;13.828;2023-09-18T02:51:23;23.70;68.30
9919;DHT22;4998;51.024;13.828;2023-09-18T02:53:50;23.60;68.10
9919;DHT22;4998;51.024;13.828;2023-09-18T02:56:17;23.60;68.20
9919;DHT22;4998;51.024;13.828;2023-09-18T02:58:44;23.60;69.10
9919;DHT22;4998;51.024;13.828;2023-09-18T03:01:11;23.70;68.30
9919;DHT22;4998;51.024;13.828;2023-09-18T03:03:38;23.70;68.40
9919;DHT22;4998;51.024;13.828;2023-09-18T03:06:08;23.70;68.40
9919;DHT22;4998;51.024;13.828;2023-09-18T03:08:35;23.70;68.40
9919;DHT22;4998;51.024;13.828;2023-09-18T03:11:02;23.70;68.40
9919;DHT22;4998;51.024;13.828;2023-09-18T03:13:31;23.70;68.60
9919;DHT22;4998;51.024;13.828;2023-09-18T03:15:58;23.70;68.50
9919;DHT22;4998;51.024;13.828;2023-09-18T03:18:25;23.70;68.60
9919;DHT22;4998;51.024;13.828;2023-09-18T03:20:52;23.70;68.50
9919;DHT22;4998;51.024;13.828;2023-09-18T03:23:20;23.60;68.40
9919;DHT22;4998;51.024;13.828;2023-09-18T03:25:47;23.70;68.70
9919;DHT22;4998;51.024;13.828;2023-09-18T03:28:14;23.70;68.60
9919;DHT22;4998;51.024;13.828;2023-09-18T03:30:41;23.70;68.60
9919;DHT22;4998;51.024;13.828;2023-09-18T03:33:08;23.70;68.60
9919;DHT22;4998;51.024;13.828;2023-09-18T03:35:45;23.70;68.70
9919;DHT22;4998;51.024;13.828;2023-09-18T03:38:13;23.70;69.00
9919;DHT22;4998;51.024;13.828;2023-09-18T03:40:42;23.70;68.90
9919;DHT22;4998;51.024;13.828;2023-09-18T03:43:09;23.70;69.00
9919;DHT22;4998;51.024;13.828;2023-09-18T03:45:37;23.70;69.10
9919;DHT22;4998;51.024;13.828;2023-09-18T03:48:06;23.70;69.10
9919;DHT22;4998;51.024;13.828;2023-09-18T03:50:33;23.60;69.00
9919;DHT22;4998;51.024;13.828;2023-09-18T03:53:00;23.60;69.10
9919;DHT22;4998;51.024;13.828;2023-09-18T03:55:27;23.60;69.20
9919;DHT22;4998;51.024;13.828;2023-09-18T03:57:57;23.60;69.30
9919;DHT22;4998;51.024;13.828;2023-09-18T04:00:24;23.60;69.50
9919;DHT22;4998;51.024;13.828;2023-09-18T04:02:51;23.60;69.50
9919;DHT22;4998;51.024;13.828;2023-09-18T04:05:18;23.70;69.60
9919;DHT22;4998;51.024;13.828;2023-09-18T04:07:45;23.60;69.60
9919;DHT22;4998;51.024;13.828;2023-09-18T04:10:13;23.60;69.70
9919;DHT22;4998;51.024;13.828;2023-09-18T04:12:45;23.60;69.80
9919;DHT22;4998;51.024;13.828;2023-09-18T04:15:15;23.60;69.90
9919;DHT22;4998;51.024;13.828;2023-09-18T04:17:43;23.50;70.00
9919;DHT22;4998;51.024;13.828;2023-09-18T04:20:11;23.50;70.00
9919;DHT22;4998;51.024;13.828;2023-09-18T04:22:47;23.50;70.20
9919;DHT22;4998;51.024;13.828;2023-09-18T04:25:15;23.50;70.40
9919;DHT22;4998;51.024;13.828;2023-09-18T04:27:42;23.50;70.40
9919;DHT22;4998;51.024;13.828;2023-09-18T04:30:10;23.40;70.40
9919;DHT22;4998;51.024;13.828;2023-09-18T04:32:39;23.40;70.60
9919;DHT22;4998;51.024;13.828;2023-09-18T04:35:06;23.40;70.70
9919;DHT22;4998;51.024;13.828;2023-09-18T04:37:36;23.30;70.70
9919;DHT22;4998;51.024;13.828;2023-09-18T04:40:05;23.30;71.00
9919;DHT22;4998;51.024;13.828;2023-09-18T04:42:35;23.30;71.00
9919;DHT22;4998;51.024;13.828;2023-09-18T04:45:03;23.20;70.90
9919;DHT22;4998;51.024;13.828;2023-09-18T04:47:30;23.20;71.10
9919;DHT22;4998;51.024;13.828;2023-09-18T04:49:59;23.20;71.30
9919;DHT22;4998;51.024;13.828;2023-09-18T04:52:26;23.20;71.50
9919;DHT22;4998;51.024;13.828;2023-09-18T04:54:53;23.20;71.50
9919;DHT22;4998;51.024;13.828;2023-09-18T04:57:23;23.10;71.60
9919;DHT22;4998;51.024;13.828;2023-09-18T04:59:50;23.10;71.80
9919;DHT22;4998;51.024;13.828;2023-09-18T05:02:17;23.10;71.90
9919;DHT22;4998;51.024;13.828;2023-09-18T05:04:44;23.10;72.30
9919;DHT22;4998;51.024;13.828;2023-09-18T05:07:12;23.10;72.60
9919;DHT22;4998;51.024;13.828;2023-09-18T05:09:40;23.20;73.10
9919;DHT22;4998;51.024;13.828;2023-09-18T05:12:08;23.10;73.10
9919;DHT22;4998;51.024;13.828;2023-09-18T05:14:39;23.10;73.20
9919;DHT22;4998;51.024;13.828;2023-09-18T05:17:09;23.20;73.30
9919;DHT22;4998;51.024;13.828;2023-09-18T05:19:36;23.20;73.60
9919;DHT22;4998;51.024;13.828;2023-09-18T05:22:03;23.20;74.50
9919;DHT22;4998;51.024;13.828;2023-09-18T05:24:32;23.30;73.90
9919;DHT22;4998;51.024;13.828;2023-09-18T05:26:59;23.30;73.90
9919;DHT22;4998;51.024;13.828;2023-09-18T05:29:26;23.30;73.80
9919;DHT22;4998;51.024;13.828;2023-09-18T05:31:53;23.40;73.90
9919;DHT22;4998;51.024;13.828;2023-09-18T05:34:20;23.40;73.90
9919;DHT22;4998;51.024;13.828;2023-09-18T05:36:47;23.50;74.00
9919;DHT22;4998;51.024;13.828;2023-09-18T05:39:14;23.50;73.90
9919;DHT22;4998;51.024;13.828;2023-09-18T05:41:42;23.50;74.00
9919;DHT22;4998;51.024;13.828;2023-09-18T05:44:09;23.50;74.00
9919;DHT22;4998;51.024;13.828;2023-09-18T05:46:36;23.60;74.10
9919;DHT22;4998;51.024;13.828;2023-09-18T05:49:04;23.60;74.20
9919;DHT22;4998;51.024;13.828;2023-09-18T05:51:31;23.70;74.40
9919;DHT22;4998;51.024;13.828;2023-09-18T05:53:58;23.70;74.50
9919;DHT22;4998;51.024;13.828;2023-09-18T05:56:25;23.80;74.60
9919;DHT22;4998;51.024;13.828;2023-09-18T05:58:54;23.90;74.60
9919;DHT22;4998;51.024;13.828;2023-09-18T06:01:21;24.00;75.40
9919;DHT22;4998;51.024;13.828;2023-09-18T06:03:48;24.10;74.40
9919;DHT22;4998;51.024;13.828;2023-09-18T06:06:15;24.30;74.40
9919;DHT22;4998;51.024;13.828;2023-09-18T06:08:42;24.40;74.20
9919;DHT22;4998;51.024;13.828;2023-09-18T06:11:09;24.50;73.90
9919;DHT22;4998;51.024;13.828;2023-09-18T06:13:36;24.50;73.70
9919;DHT22;4998;51.024;13.828;2023-09-18T06:16:05;24.60;73.50
9919;DHT22;4998;51.024;13.828;2023-09-18T06:18:33;24.60;73.40
9919;DHT22;4998;51.024;13.828;2023-09-18T06:21:03;24.70;73.30
9919;DHT22;4998;51.024;13.828;2023-09-18T06:23:30;24.80;73.30
9919;DHT22;4998;51.024;13.828;2023-09-18T06:25:58;24.80;73.10
9919;DHT22;4998;51.024;13.828;2023-09-18T06:28:25;24.80;73.00
9919;DHT22;4998;51.024;13.828;2023-09-18T06:30:52;24.80;72.80
9919;DHT22;4998;51.024;13.828;2023-09-18T06:33:21;24.90;72.90
9919;DHT22;4998;51.024;13.828;2023-09-18T06:35:48;24.90;72.80
9919;DHT22;4998;51.024;13.828;2023-09-18T06:38:15;25.00;72.90
9919;DHT22;4998;51.024;13.828;2023-09-18T06:40:42;25.00;72.80
9919;DHT22;4998;51.024;13.828;2023-09-18T06:43:09;25.00;72.50
9919;DHT22;4998;51.024;13.828;2023-09-18T06:45:36;25.10;72.50
9919;DHT22;4998;51.024;13.828;2023-09-18T06:48:04;25.10;72.20
9919;DHT22;4998;51.024;13.828;2023-09-18T06:50:34;25.10;72.00
9919;DHT22;4998;51.024;13.828;2023-09-18T06:53:02;25.10;72.00
9919;DHT22;4998;51.024;13.828;2023-09-18T06:55:29;25.10;71.80
9919;DHT22;4998;51.024;13.828;2023-09-18T06:57:56;25.10;71.90
9919;DHT22;4998;51.024;13.828;2023-09-18T07:00:23;25.10;71.90
9919;DHT22;4998;51.024;13.828;2023-09-18T07:02:51;25.00;71.90
9919;DHT22;4998;51.024;13.828;2023-09-18T07:05:18;25.10;72.10
9919;DHT22;4998;51.024;13.828;2023-09-18T07:07:46;25.10;72.10
9919;DHT22;4998;51.024;13.828;2023-09-18T07:10:13;25.10;72.10
9919;DHT22;4998;51.024;13.828;2023-09-18T07:12:40;25.10;72.10
9919;DHT22;4998;51.024;13.828;2023-09-18T07:15:08;25.20;72.10
9919;DHT22;4998;51.024;13.828;2023-09-18T07:17:36;25.20;72.20
9919;DHT22;4998;51.024;13.828;2023-09-18T07:20:04;25.20;72.20
9919;DHT22;4998;51.024;13.828;2023-09-18T07:22:39;25.20;72.00
9919;DHT22;4998;51.024;13.828;2023-09-18T07:25:08;25.30;72.10
9919;DHT22;4998;51.024;13.828;2023-09-18T07:27:35;25.30;72.00
9919;DHT22;4998;51.024;13.828;2023-09-18T07:30:05;25.40;72.00
9919;DHT22;4998;51.024;13.828;2023-09-18T07:32:32;25.40;72.00
9919;DHT22;4998;51.024;13.828;2023-09-18T07:34:59;25.40;72.00
9919;DHT22;4998;51.024;13.828;2023-09-18T07:37:26;25.50;72.00
9919;DHT22;4998;51.024;13.828;2023-09-18T07:39:53;25.60;72.10
9919;DHT22;4998;51.024;13.828;2023-09-18T07:42:24;25.60;72.00
9919;DHT22;4998;51.024;13.828;2023-09-18T07:44:51;25.70;71.90
9919;DHT22;4998;51.024;13.828;2023-09-18T07:47:18;25.70;71.80
9919;DHT22;4998;51.024;13.828;2023-09-18T07:49:45;25.70;71.60
9919;DHT22;4998;51.024;13.828;2023-09-18T07:52:12;25.80;71.30
9919;DHT22;4998;51.024;13.828;2023-09-18T07:54:40;26.00;71.40
9919;DHT22;4998;51.024;13.828;2023-09-18T07:57:07;25.90;71.20
9919;DHT22;4998;51.024;13.828;2023-09-18T07:59:36;25.90;71.10
9919;DHT22;4998;51.024;13.828;2023-09-18T08:02:04;25.90;70.80
9919;DHT22;4998;51.024;13.828;2023-09-18T08:04:32;26.00;70.90
9919;DHT22;4998;51.024;13.828;2023-09-18T08:06:59;26.00;70.80
9919;DHT22;4998;51.024;13.828;2023-09-18T08:09:26;26.10;70.70
9919;DHT22;4998;51.024;13.828;2023-09-18T08:11:55;26.10;70.60
9919;DHT22;4998;51.024;13.828;2023-09-18T08:14:22;26.20;70.40
9919;DHT22;4998;51.024;13.828;2023-09-18T08:16:57;26.20;70.10
9919;DHT22;4998;51.024;13.828;2023-09-18T08:19:25;26.20;69.80
9919;DHT22;4998;51.024;13.828;2023-09-18T08:21:53;26.30;69.60
9919;DHT22;4998;51.024;13.828;2023-09-18T08:24:21;26.40;69.50
9919;DHT22;4998;51.024;13.828;2023-09-18T08:26:49;26.40;69.30
9919;DHT22;4998;51.024;13.828;2023-09-18T08:29:16;26.50;69.30
9919;DHT22;4998;51.024;13.828;2023-09-18T08:31:43;26.50;69.20
9919;DHT22;4998;51.024;13.828;2023-09-18T08:34:11;26.60;68.90
9919;DHT22;4998;51.024;13.828;2023-09-18T08:36:39;26.60;68.80
9919;DHT22;4998;51.024;13.828;2023-09-18T08:39:06;26.70;68.60
9919;DHT22;4998;51.024;13.828;2023-09-18T08:41:33;26.80;68.40
9919;DHT22;4998;51.024;13.828;2023-09-18T08:44:07;26.80;67.90
9919;DHT22;4998;51.024;13.828;2023-09-18T08:46:36;26.90;67.70
9919;DHT22;4998;51.024;13.828;2023-09-18T08:49:04;26.90;67.40
9919;DHT22;4998;51.024;13.828;2023-09-18T08:51:33;27.00;67.10
9919;DHT22;4998;51.024;13.828;2023-09-18T08:54:01;27.00;66.90
9919;DHT22;4998;51.024;13.828;2023-09-18T08:56:30;27.10;66.80
9919;DHT22;4998;51.024;13.828;2023-09-18T08:58:58;27.10;66.50
9919;DHT22;4998;51.024;13.828;2023-09-18T09:01:25;27.20;66.20
9919;DHT22;4998;51.024;13.828;2023-09-18T09:03:52;27.20;66.10
9919;DHT22;4998;51.024;13.828;2023-09-18T09:06:20;27.30;65.90
9919;DHT22;4998;51.024;13.828;2023-09-18T09:08:49;27.30;65.60
9919;DHT22;4998;51.024;13.828;2023-09-18T09:11:17;27.40;65.20
9919;DHT22;4998;51.024;13.828;2023-09-18T09:13:45;27.40;65.10
9919;DHT22;4998;51.024;13.828;2023-09-18T09:16:12;27.50;65.20
9919;DHT22;4998;51.024;13.828;2023-09-18T09:18:47;27.50;65.00
9919;DHT22;4998;51.024;13.828;2023-09-18T09:21:15;27.60;64.60
9919;DHT22;4998;51.024;13.828;2023-09-18T09:23:46;27.70;64.60
9919;DHT22;4998;51.024;13.828;2023-09-18T09:26:16;27.80;64.10
9919;DHT22;4998;51.024;13.828;2023-09-18T09:28:44;27.80;64.00
9919;DHT22;4998;51.024;13.828;2023-09-18T09:31:11;27.90;63.90
9919;DHT22;4998;51.024;13.828;2023-09-18T09:33:50;28.00;63.30
9919;DHT22;4998;51.024;13.828;2023-09-18T09:36:19;28.00;62.60
9919;DHT22;4998;51.024;13.828;2023-09-18T09:38:46;28.10;62.40
9919;DHT22;4998;51.024;13.828;2023-09-18T09:41:14;28.20;62.40
9919;DHT22;4998;51.024;13.828;2023-09-18T09:43:43;28.30;61.50
9919;DHT22;4998;51.024;13.828;2023-09-18T09:46:15;28.40;60.80
9919;DHT22;4998;51.024;13.828;2023-09-18T09:48:58;28.40;60.60
9919;DHT22;4998;51.024;13.828;2023-09-18T09:51:27;28.50;60.40
9919;DHT22;4998;51.024;13.828;2023-09-18T09:53:54;28.50;60.10
9919;DHT22;4998;51.024;13.828;2023-09-18T09:56:40;28.60;59.60
9919;DHT22;4998;51.024;13.828;2023-09-18T09:59:09;28.70;59.90
9919;DHT22;4998;51.024;13.828;2023-09-18T10:01:38;28.70;59.30
9919;DHT22;4998;51.024;13.828;2023-09-18T10:04:11;28.80;59.10
9919;DHT22;4998;51.024;13.828;2023-09-18T10:06:40;28.80;58.70
9919;DHT22;4998;51.024;13.828;2023-09-18T10:09:08;28.90;58.80
9919;DHT22;4998;51.024;13.828;2023-09-18T10:11:41;28.90;58.60
9919;DHT22;4998;51.024;13.828;2023-09-18T10:14:14;28.90;58.30
9919;DHT22;4998;51.024;13.828;2023-09-18T10:16:45;29.00;59.00
9919;DHT22;4998;51.024;13.828;2023-09-18T10:19:24;29.00;58.20
9919;DHT22;4998;51.024;13.828;2023-09-18T10:22:01;29.10;58.10
9919;DHT22;4998;51.024;13.828;2023-09-18T10:24:37;29.10;57.80
9919;DHT22;4998;51.024;13.828;2023-09-18T10:27:07;29.20;57.90
9919;DHT22;4998;51.024;13.828;2023-09-18T10:29:36;29.20;57.70
9919;DHT22;4998;51.024;13.828;2023-09-18T10:32:05;29.30;57.40
9919;DHT22;4998;51.024;13.828;2023-09-18T10:34:34;29.40;57.30
9919;DHT22;4998;51.024;13.828;2023-09-18T10:37:02;29.50;57.40
9919;DHT22;4998;51.024;13.828;2023-09-18T10:39:35;29.50;57.00
9919;DHT22;4998;51.024;13.828;2023-09-18T10:42:03;29.50;56.70
9919;DHT22;4998;51.024;13.828;2023-09-18T10:44:32;29.60;56.80
9919;DHT22;4998;51.024;13.828;2023-09-18T10:47:02;29.60;56.50
9919;DHT22;4998;51.024;13.828;2023-09-18T10:49:31;29.70;56.10
9919;DHT22;4998;51.024;13.828;2023-09-18T10:51:58;29.70;56.20
9919;DHT22;4998;51.024;13.828;2023-09-18T10:54:28;29.70;56.30
9919;DHT22;4998;51.024;13.828;2023-09-18T10:56:56;29.80;56.30
9919;DHT22;4998;51.024;13.828;2023-09-18T10:59:23;29.80;56.40
9919;DHT22;4998;51.024;13.828;2023-09-18T11:01:50;29.90;56.30
9919;DHT22;4998;51.024;13.828;2023-09-18T11:04:20;29.90;56.30
9919;DHT22;4998;51.024;13.828;2023-09-18T11:07:04;30.00;56.20
9919;DHT22;4998;51.024;13.828;2023-09-18T11:09:42;30.00;56.10
9919;DHT22;4998;51.024;13.828;2023-09-18T11:12:11;30.10;55.80
9919;DHT22;4998;51.024;13.828;2023-09-18T11:14:46;30.10;55.70
9919;DHT22;4998;51.024;13.828;2023-09-18T11:17:32;30.20;55.40
9919;DHT22;4998;51.024;13.828;2023-09-18T11:20:09;30.20;55.20
9919;DHT22;4998;51.024;13.828;2023-09-18T11:22:38;30.20;54.90
9919;DHT22;4998;51.024;13.828;2023-09-18T11:25:34;30.20;55.00
9919;DHT22;4998;51.024;13.828;2023-09-18T11:28:04;30.20;55.00
9919;DHT22;4998;51.024;13.828;2023-09-18T11:30:33;30.20;55.00
9919;DHT22;4998;51.024;13.828;2023-09-18T11:35:31;30.20;55.00
9919;DHT22;4998;51.024;13.828;2023-09-18T11:38:05;30.30;55.00
9919;DHT22;4998;51.024;13.828;2023-09-18T11:40:33;30.30;55.00
9919;DHT22;4998;51.024;13.828;2023-09-18T11:43:21;30.20;55.00
9919;DHT22;4998;51.024;13.828;2023-09-18T11:45:52;30.30;55.10
9919;DHT22;4998;51.024;13.828;2023-09-18T11:48:20;30.30;55.10
9919;DHT22;4998;51.024;13.828;2023-09-18T11:50:51;30.30;55.20
9919;DHT22;4998;51.024;13.828;2023-09-18T11:53:20;30.30;54.90
9919;DHT22;4998;51.024;13.828;2023-09-18T11:55:47;30.40;54.90
9919;DHT22;4998;51.024;13.828;2023-09-18T11:58:14;30.40;54.80
9919;DHT22;4998;51.024;13.828;2023-09-18T12:00:42;30.40;54.90
9919;DHT22;4998;51.024;13.828;2023-09-18T12:03:16;30.40;54.90
9919;DHT22;4998;51.024;13.828;2023-09-18T12:05:53;30.50;55.00
9919;DHT22;4998;51.024;13.828;2023-09-18T12:08:22;30.50;54.70
9919;DHT22;4998;51.024;13.828;2023-09-18T12:10:52;30.60;54.80
9919;DHT22;4998;51.024;13.828;2023-09-18T12:13:20;30.60;54.50
9919;DHT22;4998;51.024;13.828;2023-09-18T12:15:47;30.60;54.30
9919;DHT22;4998;51.024;13.828;2023-09-18T12:18:15;30.70;54.10
9919;DHT22;4998;51.024;13.828;2023-09-18T12:20:47;30.70;54.20
9919;DHT22;4998;51.024;13.828;2023-09-18T12:23:16;30.60;54.10
9919;DHT22;4998;51.024;13.828;2023-09-18T12:25:46;30.70;54.30
9919;DHT22;4998;51.024;13.828;2023-09-18T12:28:14;30.70;54.30
9919;DHT22;4998;51.024;13.828;2023-09-18T12:30:43;30.70;53.90
9919;DHT22;4998;51.024;13.828;2023-09-18T12:33:12;30.70;53.80
9919;DHT22;4998;51.024;13.828;2023-09-18T12:35:40;30.70;53.80
9919;DHT22;4998;51.024;13.828;2023-09-18T12:38:14;30.70;53.60
9919;DHT22;4998;51.024;13.828;2023-09-18T12:40:43;30.70;53.40
9919;DHT22;4998;51.024;13.828;2023-09-18T12:43:12;30.70;53.50
9919;DHT22;4998;51.024;13.828;2023-09-18T12:45:41;30.60;53.60
9919;DHT22;4998;51.024;13.828;2023-09-18T12:48:09;30.60;53.70
9919;DHT22;4998;51.024;13.828;2023-09-18T12:50:37;30.60;53.80
9919;DHT22;4998;51.024;13.828;2023-09-18T12:53:09;30.60;53.90
9919;DHT22;4998;51.024;13.828;2023-09-18T12:55:37;30.60;53.80
9919;DHT22;4998;51.024;13.828;2023-09-18T12:58:06;30.60;53.90
9919;DHT22;4998;51.024;13.828;2023-09-18T13:00:35;30.70;53.90
9919;DHT22;4998;51.024;13.828;2023-09-18T13:03:03;30.70;53.80
9919;DHT22;4998;51.024;13.828;2023-09-18T13:05:30;30.80;53.90
9919;DHT22;4998;51.024;13.828;2023-09-18T13:08:02;30.80;53.70
9919;DHT22;4998;51.024;13.828;2023-09-18T13:10:40;30.80;53.50
9919;DHT22;4998;51.024;13.828;2023-09-18T13:13:16;30.90;53.50
9919;DHT22;4998;51.024;13.828;2023-09-18T13:15:43;31.00;53.50
9919;DHT22;4998;51.024;13.828;2023-09-18T13:18:12;31.00;53.50
9919;DHT22;4998;51.024;13.828;2023-09-18T13:20:39;31.10;53.30
9919;DHT22;4998;51.024;13.828;2023-09-18T13:23:07;31.10;53.30
9919;DHT22;4998;51.024;13.828;2023-09-18T13:25:37;31.20;53.30
9919;DHT22;4998;51.024;13.828;2023-09-18T13:28:08;31.10;53.20
9919;DHT22;4998;51.024;13.828;2023-09-18T13:30:37;31.20;53.00
9919;DHT22;4998;51.024;13.828;2023-09-18T13:33:06;31.30;52.90
9919;DHT22;4998;51.024;13.828;2023-09-18T13:35:35;31.30;52.70
9919;DHT22;4998;51.024;13.828;2023-09-18T13:38:03;31.30;52.50
9919;DHT22;4998;51.024;13.828;2023-09-18T13:40:31;31.40;52.50
9919;DHT22;4998;51.024;13.828;2023-09-18T13:42:59;31.50;52.50
9919;DHT22;4998;51.024;13.828;2023-09-18T13:45:28;31.50;52.50
9919;DHT22;4998;51.024;13.828;2023-09-18T13:53:06;31.60;52.40
9919;DHT22;4998;51.024;13.828;2023-09-18T13:55:44;31.60;51.40
9919;DHT22;4998;51.024;13.828;2023-09-18T14:08:29;31.50;51.90
9919;DHT22;4998;51.024;13.828;2023-09-18T14:10:57;31.50;51.70
9919;DHT22;4998;51.024;13.828;2023-09-18T14:13:26;31.50;51.80
9919;DHT22;4998;51.024;13.828;2023-09-18T14:15:58;31.50;51.70
9919;DHT22;4998;51.024;13.828;2023-09-18T14:18:29;31.40;51.50
9919;DHT22;4998;51.024;13.828;2023-09-18T14:21:00;31.40;51.60
9919;DHT22;4998;51.024;13.828;2023-09-18T14:23:32;31.40;51.70
9919;DHT22;4998;51.024;13.828;2023-09-18T14:26:01;31.30;51.60
9919;DHT22;4998;51.024;13.828;2023-09-18T14:28:29;31.20;51.80
9919;DHT22;4998;51.024;13.828;2023-09-18T14:31:06;31.20;51.90
9919;DHT22;4998;51.024;13.828;2023-09-18T14:33:34;31.20;52.20
9919;DHT22;4998;51.024;13.828;2023-09-18T14:36:05;31.20;52.20
9919;DHT22;4998;51.024;13.828;2023-09-18T14:38:35;31.20;52.30
9919;DHT22;4998;51.024;13.828;2023-09-18T14:41:09;31.20;52.30
9919;DHT22;4998;51.024;13.828;2023-09-18T14:43:37;31.20;52.10
9919;DHT22;4998;51.024;13.828;2023-09-18T14:46:06;31.10;52.10
9919;DHT22;4998;51.024;13.828;2023-09-18T14:48:34;31.10;52.20
9919;DHT22;4998;51.024;13.828;2023-09-18T14:51:02;31.10;52.10
9919;DHT22;4998;51.024;13.828;2023-09-18T14:53:30;31.00;51.90
9919;DHT22;4998;51.024;13.828;2023-09-18T14:56:01;31.00;52.10
9919;DHT22;4998;51.024;13.828;2023-09-18T14:58:30;30.90;51.80
9919;DHT22;4998;51.024;13.828;2023-09-18T15:00:58;30.90;52.00
9919;DHT22;4998;51.024;13.828;2023-09-18T15:03:26;30.80;51.70
9919;DHT22;4998;51.024;13.828;2023-09-18T15:05:55;30.80;51.50
9919;DHT22;4998;51.024;13.828;2023-09-18T15:08:25;30.80;51.10
9919;DHT22;4998;51.024;13.828;2023-09-18T15:10:55;30.80;50.80
9919;DHT22;4998;51.024;13.828;2023-09-18T15:13:25;30.80;50.70
9919;DHT22;4998;51.024;13.828;2023-09-18T15:15:53;30.80;50.30
9919;DHT22;4998;51.024;13.828;2023-09-18T15:18:26;30.80;50.50
9919;DHT22;4998;51.024;13.828;2023-09-18T15:20:54;30.70;50.60
9919;DHT22;4998;51.024;13.828;2023-09-18T15:23:22;30.70;50.60
9919;DHT22;4998;51.024;13.828;2023-09-18T15:25:49;30.70;50.70
9919;DHT22;4998;51.024;13.828;2023-09-18T15:28:19;30.60;50.70
9919;DHT22;4998;51.024;13.828;2023-09-18T15:30:50;30.50;50.30
9919;DHT22;4998;51.024;13.828;2023-09-18T15:33:17;30.40;50.00
9919;DHT22;4998;51.024;13.828;2023-09-18T15:35:47;30.40;50.60
9919;DHT22;4998;51.024;13.828;2023-09-18T15:38:14;30.30;49.80
9919;DHT22;4998;51.024;13.828;2023-09-18T15:40:41;30.20;49.60
9919;DHT22;4998;51.024;13.828;2023-09-18T15:43:08;30.10;49.40
9919;DHT22;4998;51.024;13.828;2023-09-18T15:45:35;30.00;49.10
9919;DHT22;4998;51.024;13.828;2023-09-18T15:48:05;29.90;49.10
9919;DHT22;4998;51.024;13.828;2023-09-18T15:50:32;29.80;49.00
9919;DHT22;4998;51.024;13.828;2023-09-18T15:52:59;29.70;48.80
9919;DHT22;4998;51.024;13.828;2023-09-18T15:55:26;29.60;48.80
9919;DHT22;4998;51.024;13.828;2023-09-18T15:57:54;29.50;48.70
9919;DHT22;4998;51.024;13.828;2023-09-18T16:00:21;29.40;48.60
9919;DHT22;4998;51.024;13.828;2023-09-18T16:02:48;29.30;48.50
9919;DHT22;4998;51.024;13.828;2023-09-18T16:05:18;29.30;48.70
9919;DHT22;4998;51.024;13.828;2023-09-18T16:07:51;29.20;48.70
9919;DHT22;4998;51.024;13.828;2023-09-18T16:10:25;29.10;48.80
9919;DHT22;4998;51.024;13.828;2023-09-18T16:12:52;29.00;48.90